sensor_id;sensor_type;location;lat;lon;timestamp;P1;durP1;ratioP1;P2;durP2;ratioP2
13279;SDS011;6708;49.814;8.652;2023-04-15T00:02:27;2.00;;;1.70;;
13279;SDS011;6708;49.814;8.652;2023-04-15T00:04:56;2.90;;;2.10;;
13279;SDS011;6708;49.814;8.652;2023-04-15T00:07:24;1.67;;;1.63;;
13279;SDS011;6708;49.814;8.652;2023-04-15T00:09:53;1.93;;;1.83;;
13279;SDS011;6708;49.814;8.652;2023-04-15T00:12:22;4.43;;;2.10;;
13279;SDS011;6708;49.814;8.652;2023-04-15T00:14:50;1.77;;;1.70;;
13279;SDS011;6708;49.814;8.652;2023-04-15T00:17:20;1.80;;;1.67;;
13279;SDS011;6708;49.814;8.652;2023-04-15T00:19:50;1.87;;;1.77;;
13279;SDS011;6708;49.814;8.652;2023-04-15T00:22:19;2.43;;;1.90;;
13279;SDS011;6708;49.814;8.652;2023-04-15T00:24:47;2.00;;;1.90;;
13279;SDS011;6708;49.814;8.652;2023-04-15T00:27:16;2.33;;;1.60;;
13279;SDS011;6708;49.814;8.652;2023-04-15T00:29:44;1.33;;;1.33;;
13279;SDS011;6708;49.814;8.652;2023-04-15T00:32:12;2.00;;;1.90;;
13279;SDS011;6708;49.814;8.652;2023-04-15T00:34:41;2.07;;;1.57;;
13279;SDS011;6708;49.814;8.652;2023-04-15T00:37:13;2.10;;;1.90;;
13279;SDS011;6708;49.814;8.652;2023-04-15T00:39:41;7.60;;;1.73;;
13279;SDS011;6708;49.814;8.652;2023-04-15T00:42:09;1.90;;;1.80;;
13279;SDS011;6708;49.814;8.652;2023-04-15T00:44:38;3.90;;;1.80;;
13279;SDS011;6708;49.814;8.652;2023-04-15T00:47:06;2.03;;;1.83;;
13279;SDS011;6708;49.814;8.652;2023-04-15T00:49:35;2.17;;;1.77;;
13279;SDS011;6708;49.814;8.652;2023-04-15T00:52:04;1.63;;;1.53;;
13279;SDS011;6708;49.814;8.652;2023-04-15T00:54:35;1.60;;;1.50;;
13279;SDS011;6708;49.814;8.652;2023-04-15T00:57:04;2.50;;;1.60;;
13279;SDS011;6708;49.814;8.652;2023-04-15T00:59:33;2.20;;;2.10;;
13279;SDS011;6708;49.814;8.652;2023-04-15T01:02:01;1.63;;;1.53;;
13279;SDS011;6708;49.814;8.652;2023-04-15T01:04:29;1.87;;;1.77;;
13279;SDS011;6708;49.814;8.652;2023-04-15T01:06:58;1.73;;;1.60;;
13279;SDS011;6708;49.814;8.652;2023-04-15T01:09:26;1.10;;;1.10;;
13279;SDS011;6708;49.814;8.652;2023-04-15T01:11:57;1.50;;;1.40;;
13279;SDS011;6708;49.814;8.652;2023-04-15T01:14:27;1.70;;;1.60;;
13279;SDS011;6708;49.814;8.652;2023-04-15T01:16:56;1.73;;;1.63;;
13279;SDS011;6708;49.814;8.652;2023-04-15T01:19:25;2.60;;;1.40;;
13279;SDS011;6708;49.814;8.652;2023-04-15T01:21:53;1.90;;;1.80;;
13279;SDS011;6708;49.814;8.652;2023-04-15T01:24:21;2.20;;;1.83;;
13279;SDS011;6708;49.814;8.652;2023-04-15T01:26:53;1.73;;;1.67;;
13279;SDS011;6708;49.814;8.652;2023-04-15T01:29:22;4.80;;;2.10;;
13279;SDS011;6708;49.814;8.652;2023-04-15T01:31:51;2.00;;;1.80;;
13279;SDS011;6708;49.814;8.652;2023-04-15T01:34:20;1.83;;;1.73;;
13279;SDS011;6708;49.814;8.652;2023-04-15T01:36:52;2.47;;;2.00;;
13279;SDS011;6708;49.814;8.652;2023-04-15T01:39:20;1.90;;;1.80;;
13279;SDS011;6708;49.814;8.652;2023-04-15T01:41:49;2.30;;;2.10;;
13279;SDS011;6708;49.814;8.652;2023-04-15T01:44:20;1.93;;;1.83;;
13279;SDS011;6708;49.814;8.652;2023-04-15T01:46:49;1.60;;;1.50;;
13279;SDS011;6708;49.814;8.652;2023-04-15T01:49:18;1.60;;;1.50;;
13279;SDS011;6708;49.814;8.652;2023-04-15T01:51:47;1.73;;;1.60;;
13279;SDS011;6708;49.814;8.652;2023-04-15T01:54:15;2.00;;;1.90;;
13279;SDS011;6708;49.814;8.652;2023-04-15T01:56:44;1.63;;;1.63;;
13279;SDS011;6708;49.814;8.652;2023-04-15T01:59:12;1.70;;;1.50;;
13279;SDS011;6708;49.814;8.652;2023-04-15T02:01:43;1.87;;;1.77;;
13279;SDS011;6708;49.814;8.652;2023-04-15T02:04:12;2.30;;;1.70;;
13279;SDS011;6708;49.814;8.652;2023-04-15T02:06:41;1.87;;;1.77;;
13279;SDS011;6708;49.814;8.652;2023-04-15T02:09:10;2.10;;;1.70;;
13279;SDS011;6708;49.814;8.652;2023-04-15T02:11:39;1.60;;;1.50;;
13279;SDS011;6708;49.814;8.652;2023-04-15T02:14:07;2.57;;;1.73;;
13279;SDS011;6708;49.814;8.652;2023-04-15T02:16:35;1.67;;;1.57;;
13279;SDS011;6708;49.814;8.652;2023-04-15T02:19:06;1.67;;;1.57;;
13279;SDS011;6708;49.814;8.652;2023-04-15T02:21:36;1.43;;;1.33;;
13279;SDS011;6708;49.814;8.652;2023-04-15T02:24:05;1.27;;;1.27;;
13279;SDS011;6708;49.814;8.652;2023-04-15T02:26:33;2.00;;;1.90;;
13279;SDS011;6708;49.814;8.652;2023-04-15T02:29:02;1.80;;;1.70;;
13279;SDS011;6708;49.814;8.652;2023-04-15T02:31:31;1.90;;;1.80;;
13279;SDS011;6708;49.814;8.652;2023-04-15T02:34:07;1.87;;;1.77;;
13279;SDS011;6708;49.814;8.652;2023-04-15T02:36:35;1.70;;;1.60;;
13279;SDS011;6708;49.814;8.652;2023-04-15T02:39:04;1.60;;;1.50;;
13279;SDS011;6708;49.814;8.652;2023-04-15T02:41:33;1.50;;;1.40;;
13279;SDS011;6708;49.814;8.652;2023-04-15T02:44:02;1.27;;;1.20;;
13279;SDS011;6708;49.814;8.652;2023-04-15T02:46:33;1.57;;;1.47;;
13279;SDS011;6708;49.814;8.652;2023-04-15T02:49:03;1.60;;;1.50;;
13279;SDS011;6708;49.814;8.652;2023-04-15T02:51:37;1.40;;;1.30;;
13279;SDS011;6708;49.814;8.652;2023-04-15T02:54:06;1.93;;;1.43;;
13279;SDS011;6708;49.814;8.652;2023-04-15T02:56:34;1.30;;;1.20;;
13279;SDS011;6708;49.814;8.652;2023-04-15T02:59:03;1.60;;;1.57;;
13279;SDS011;6708;49.814;8.652;2023-04-15T03:01:31;1.73;;;1.63;;
13279;SDS011;6708;49.814;8.652;2023-04-15T03:04:00;1.67;;;1.20;;
13279;SDS011;6708;49.814;8.652;2023-04-15T03:06:28;1.60;;;1.50;;
13279;SDS011;6708;49.814;8.652;2023-04-15T03:08:59;0.90;;;0.90;;
13279;SDS011;6708;49.814;8.652;2023-04-15T03:11:31;1.30;;;1.30;;
13279;SDS011;6708;49.814;8.652;2023-04-15T03:14:01;1.40;;;1.30;;
13279;SDS011;6708;49.814;8.652;2023-04-15T03:16:33;1.17;;;1.07;;
13279;SDS011;6708;49.814;8.652;2023-04-15T03:19:02;1.60;;;1.43;;
13279;SDS011;6708;49.814;8.652;2023-04-15T03:21:32;1.50;;;1.40;;
13279;SDS011;6708;49.814;8.652;2023-04-15T03:24:03;1.30;;;1.30;;
13279;SDS011;6708;49.814;8.652;2023-04-15T03:26:32;1.40;;;1.40;;
13279;SDS011;6708;49.814;8.652;2023-04-15T03:29:07;1.33;;;1.23;;
13279;SDS011;6708;49.814;8.652;2023-04-15T03:31:35;1.60;;;1.50;;
13279;SDS011;6708;49.814;8.652;2023-04-15T03:34:04;1.70;;;1.60;;
13279;SDS011;6708;49.814;8.652;2023-04-15T03:36:32;1.50;;;1.43;;
13279;SDS011;6708;49.814;8.652;2023-04-15T03:39:03;1.47;;;1.40;;
13279;SDS011;6708;49.814;8.652;2023-04-15T03:41:32;2.10;;;1.23;;
13279;SDS011;6708;49.814;8.652;2023-04-15T03:44:00;1.90;;;1.20;;
13279;SDS011;6708;49.814;8.652;2023-04-15T03:46:30;1.73;;;1.63;;
13279;SDS011;6708;49.814;8.652;2023-04-15T03:48:59;1.00;;;1.00;;
13279;SDS011;6708;49.814;8.652;2023-04-15T03:51:27;1.40;;;1.30;;
13279;SDS011;6708;49.814;8.652;2023-04-15T03:53:55;1.83;;;1.73;;
13279;SDS011;6708;49.814;8.652;2023-04-15T03:56:26;2.00;;;1.90;;
13279;SDS011;6708;49.814;8.652;2023-04-15T03:58:55;1.53;;;1.43;;
13279;SDS011;6708;49.814;8.652;2023-04-15T04:01:23;2.03;;;1.67;;
13279;SDS011;6708;49.814;8.652;2023-04-15T04:03:52;2.00;;;1.87;;
13279;SDS011;6708;49.814;8.652;2023-04-15T04:06:20;1.80;;;1.70;;
13279;SDS011;6708;49.814;8.652;2023-04-15T04:08:48;2.00;;;1.70;;
13279;SDS011;6708;49.814;8.652;2023-04-15T04:11:17;1.60;;;1.50;;
13279;SDS011;6708;49.814;8.652;2023-04-15T04:13:48;1.43;;;1.43;;
13279;SDS011;6708;49.814;8.652;2023-04-15T04:16:16;1.47;;;1.43;;
13279;SDS011;6708;49.814;8.652;2023-04-15T04:18:44;1.67;;;1.30;;
13279;SDS011;6708;49.814;8.652;2023-04-15T04:21:13;1.60;;;1.33;;
13279;SDS011;6708;49.814;8.652;2023-04-15T04:23:41;2.97;;;1.83;;
13279;SDS011;6708;49.814;8.652;2023-04-15T04:26:10;3.73;;;1.67;;
13279;SDS011;6708;49.814;8.652;2023-04-15T04:28:38;1.40;;;1.40;;
13279;SDS011;6708;49.814;8.652;2023-04-15T04:31:09;1.57;;;1.47;;
13279;SDS011;6708;49.814;8.652;2023-04-15T04:33:37;1.20;;;1.20;;
13279;SDS011;6708;49.814;8.652;2023-04-15T04:36:06;1.40;;;1.30;;
13279;SDS011;6708;49.814;8.652;2023-04-15T04:38:34;1.53;;;1.50;;
13279;SDS011;6708;49.814;8.652;2023-04-15T04:41:03;1.00;;;1.00;;
13279;SDS011;6708;49.814;8.652;2023-04-15T04:43:31;1.60;;;1.50;;
13279;SDS011;6708;49.814;8.652;2023-04-15T04:46:00;1.77;;;1.67;;
13279;SDS011;6708;49.814;8.652;2023-04-15T04:48:31;1.40;;;1.30;;
13279;SDS011;6708;49.814;8.652;2023-04-15T04:50:59;1.83;;;1.57;;
13279;SDS011;6708;49.814;8.652;2023-04-15T04:53:27;3.40;;;1.63;;
13279;SDS011;6708;49.814;8.652;2023-04-15T04:55:56;1.70;;;1.70;;
13279;SDS011;6708;49.814;8.652;2023-04-15T04:58:24;1.30;;;1.30;;
13279;SDS011;6708;49.814;8.652;2023-04-15T05:00:52;1.40;;;1.40;;
13279;SDS011;6708;49.814;8.652;2023-04-15T05:03:21;1.83;;;1.73;;
13279;SDS011;6708;49.814;8.652;2023-04-15T05:05:52;1.47;;;1.37;;
13279;SDS011;6708;49.814;8.652;2023-04-15T05:08:20;1.60;;;1.60;;
13279;SDS011;6708;49.814;8.652;2023-04-15T05:10:49;1.67;;;1.60;;
13279;SDS011;6708;49.814;8.652;2023-04-15T05:13:17;1.60;;;1.50;;
13279;SDS011;6708;49.814;8.652;2023-04-15T05:15:46;1.70;;;1.70;;
13279;SDS011;6708;49.814;8.652;2023-04-15T05:18:14;1.63;;;1.53;;
13279;SDS011;6708;49.814;8.652;2023-04-15T05:20:42;1.77;;;1.77;;
13279;SDS011;6708;49.814;8.652;2023-04-15T05:23:13;3.10;;;2.13;;
13279;SDS011;6708;49.814;8.652;2023-04-15T05:25:41;1.70;;;1.60;;
13279;SDS011;6708;49.814;8.652;2023-04-15T05:28:10;1.90;;;1.80;;
13279;SDS011;6708;49.814;8.652;2023-04-15T05:30:38;1.63;;;1.50;;
13279;SDS011;6708;49.814;8.652;2023-04-15T05:33:07;1.53;;;1.50;;
13279;SDS011;6708;49.814;8.652;2023-04-15T05:35:35;1.47;;;1.40;;
13279;SDS011;6708;49.814;8.652;2023-04-15T05:38:04;1.57;;;1.57;;
13279;SDS011;6708;49.814;8.652;2023-04-15T05:40:35;1.97;;;1.87;;
13279;SDS011;6708;49.814;8.652;2023-04-15T05:43:03;1.50;;;1.50;;
13279;SDS011;6708;49.814;8.652;2023-04-15T05:45:32;1.53;;;1.53;;
13279;SDS011;6708;49.814;8.652;2023-04-15T05:48:00;1.60;;;1.53;;
13279;SDS011;6708;49.814;8.652;2023-04-15T05:50:29;3.13;;;1.70;;
13279;SDS011;6708;49.814;8.652;2023-04-15T05:52:57;2.60;;;1.40;;
13279;SDS011;6708;49.814;8.652;2023-04-15T05:55:26;1.60;;;1.60;;
13279;SDS011;6708;49.814;8.652;2023-04-15T05:57:57;1.80;;;1.70;;
13279;SDS011;6708;49.814;8.652;2023-04-15T06:00:25;1.87;;;1.77;;
13279;SDS011;6708;49.814;8.652;2023-04-15T06:02:54;2.07;;;1.97;;
13279;SDS011;6708;49.814;8.652;2023-04-15T06:05:23;1.60;;;1.60;;
13279;SDS011;6708;49.814;8.652;2023-04-15T06:07:52;1.77;;;1.67;;
13279;SDS011;6708;49.814;8.652;2023-04-15T06:10:20;1.60;;;1.50;;
13279;SDS011;6708;49.814;8.652;2023-04-15T06:12:49;1.90;;;1.80;;
13279;SDS011;6708;49.814;8.652;2023-04-15T06:15:19;2.80;;;1.63;;
13279;SDS011;6708;49.814;8.652;2023-04-15T06:17:48;2.07;;;1.87;;
13279;SDS011;6708;49.814;8.652;2023-04-15T06:20:16;3.47;;;1.80;;
13279;SDS011;6708;49.814;8.652;2023-04-15T06:22:45;1.97;;;1.87;;
13279;SDS011;6708;49.814;8.652;2023-04-15T06:25:13;2.17;;;2.00;;
13279;SDS011;6708;49.814;8.652;2023-04-15T06:27:41;3.03;;;1.80;;
13279;SDS011;6708;49.814;8.652;2023-04-15T06:30:10;2.43;;;2.23;;
13279;SDS011;6708;49.814;8.652;2023-04-15T06:32:42;2.37;;;2.17;;
13279;SDS011;6708;49.814;8.652;2023-04-15T06:35:10;2.53;;;1.87;;
13279;SDS011;6708;49.814;8.652;2023-04-15T06:37:40;1.63;;;1.63;;
13279;SDS011;6708;49.814;8.652;2023-04-15T06:40:09;2.03;;;1.67;;
13279;SDS011;6708;49.814;8.652;2023-04-15T06:42:37;1.93;;;1.83;;
13279;SDS011;6708;49.814;8.652;2023-04-15T06:45:07;2.60;;;2.03;;
13279;SDS011;6708;49.814;8.652;2023-04-15T06:47:36;2.00;;;1.90;;
13279;SDS011;6708;49.814;8.652;2023-04-15T06:50:08;1.73;;;1.63;;
13279;SDS011;6708;49.814;8.652;2023-04-15T06:52:37;1.80;;;1.70;;
13279;SDS011;6708;49.814;8.652;2023-04-15T06:55:07;1.60;;;1.50;;
13279;SDS011;6708;49.814;8.652;2023-04-15T06:57:35;1.97;;;1.73;;
13279;SDS011;6708;49.814;8.652;2023-04-15T07:00:04;1.50;;;1.50;;
13279;SDS011;6708;49.814;8.652;2023-04-15T07:02:35;1.80;;;1.77;;
13279;SDS011;6708;49.814;8.652;2023-04-15T07:05:04;2.70;;;1.67;;
13279;SDS011;6708;49.814;8.652;2023-04-15T07:07:36;3.73;;;1.60;;
13279;SDS011;6708;49.814;8.652;2023-04-15T07:10:05;1.67;;;1.60;;
13279;SDS011;6708;49.814;8.652;2023-04-15T07:12:36;2.03;;;1.90;;
13279;SDS011;6708;49.814;8.652;2023-04-15T07:15:05;2.23;;;2.10;;
13279;SDS011;6708;49.814;8.652;2023-04-15T07:17:34;2.13;;;2.03;;
13279;SDS011;6708;49.814;8.652;2023-04-15T07:20:02;1.53;;;1.53;;
13279;SDS011;6708;49.814;8.652;2023-04-15T07:22:31;2.33;;;2.07;;
13279;SDS011;6708;49.814;8.652;2023-04-15T07:25:03;1.80;;;1.70;;
13279;SDS011;6708;49.814;8.652;2023-04-15T07:27:32;1.80;;;1.70;;
13279;SDS011;6708;49.814;8.652;2023-04-15T07:30:00;1.57;;;1.57;;
13279;SDS011;6708;49.814;8.652;2023-04-15T07:32:29;2.53;;;2.33;;
13279;SDS011;6708;49.814;8.652;2023-04-15T07:34:57;2.23;;;2.10;;
13279;SDS011;6708;49.814;8.652;2023-04-15T07:37:26;2.10;;;2.00;;
13279;SDS011;6708;49.814;8.652;2023-04-15T07:39:55;2.13;;;2.03;;
13279;SDS011;6708;49.814;8.652;2023-04-15T07:42:26;2.87;;;2.67;;
13279;SDS011;6708;49.814;8.652;2023-04-15T07:44:54;3.00;;;2.80;;
13279;SDS011;6708;49.814;8.652;2023-04-15T07:47:23;3.70;;;3.40;;
13279;SDS011;6708;49.814;8.652;2023-04-15T07:49:52;3.37;;;3.03;;
13279;SDS011;6708;49.814;8.652;2023-04-15T07:52:20;3.40;;;3.20;;
13279;SDS011;6708;49.814;8.652;2023-04-15T07:54:48;4.07;;;3.10;;
13279;SDS011;6708;49.814;8.652;2023-04-15T07:57:17;4.53;;;3.47;;
13279;SDS011;6708;49.814;8.652;2023-04-15T07:59:48;3.87;;;3.57;;
13279;SDS011;6708;49.814;8.652;2023-04-15T08:02:16;3.77;;;3.43;;
13279;SDS011;6708;49.814;8.652;2023-04-15T08:04:44;3.67;;;3.47;;
13279;SDS011;6708;49.814;8.652;2023-04-15T08:07:13;5.13;;;3.70;;
13279;SDS011;6708;49.814;8.652;2023-04-15T08:09:42;4.17;;;3.87;;
13279;SDS011;6708;49.814;8.652;2023-04-15T08:12:11;3.73;;;3.50;;
13279;SDS011;6708;49.814;8.652;2023-04-15T08:14:40;4.20;;;3.90;;
13279;SDS011;6708;49.814;8.652;2023-04-15T08:17:11;4.27;;;3.87;;
13279;SDS011;6708;49.814;8.652;2023-04-15T08:19:39;3.90;;;3.67;;
13279;SDS011;6708;49.814;8.652;2023-04-15T08:22:08;4.20;;;3.90;;
13279;SDS011;6708;49.814;8.652;2023-04-15T08:24:37;4.63;;;4.23;;
13279;SDS011;6708;49.814;8.652;2023-04-15T08:27:05;3.37;;;3.17;;
13279;SDS011;6708;49.814;8.652;2023-04-15T08:29:34;6.37;;;4.10;;
13279;SDS011;6708;49.814;8.652;2023-04-15T08:32:03;5.33;;;4.00;;
13279;SDS011;6708;49.814;8.652;2023-04-15T08:34:34;4.37;;;3.97;;
13279;SDS011;6708;49.814;8.652;2023-04-15T08:37:02;4.43;;;4.03;;
13279;SDS011;6708;49.814;8.652;2023-04-15T08:39:31;4.53;;;3.93;;
13279;SDS011;6708;49.814;8.652;2023-04-15T08:42:00;3.97;;;3.67;;
13279;SDS011;6708;49.814;8.652;2023-04-15T08:44:32;4.27;;;3.90;;
13279;SDS011;6708;49.814;8.652;2023-04-15T08:47:02;4.03;;;3.73;;
13279;SDS011;6708;49.814;8.652;2023-04-15T08:49:33;3.93;;;3.60;;
13279;SDS011;6708;49.814;8.652;2023-04-15T08:52:03;3.77;;;3.27;;
13279;SDS011;6708;49.814;8.652;2023-04-15T08:54:32;2.83;;;2.63;;
13279;SDS011;6708;49.814;8.652;2023-04-15T08:57:01;5.03;;;3.30;;
13279;SDS011;6708;49.814;8.652;2023-04-15T08:59:30;5.73;;;2.90;;
13279;SDS011;6708;49.814;8.652;2023-04-15T09:01:59;2.90;;;2.80;;
13279;SDS011;6708;49.814;8.652;2023-04-15T09:04:28;2.70;;;2.60;;
13279;SDS011;6708;49.814;8.652;2023-04-15T09:06:59;2.37;;;2.27;;
13279;SDS011;6708;49.814;8.652;2023-04-15T09:09:27;3.07;;;2.40;;
13279;SDS011;6708;49.814;8.652;2023-04-15T09:11:56;3.33;;;2.23;;
13279;SDS011;6708;49.814;8.652;2023-04-15T09:14:24;3.07;;;2.40;;
13279;SDS011;6708;49.814;8.652;2023-04-15T09:16:55;3.13;;;2.20;;
13279;SDS011;6708;49.814;8.652;2023-04-15T09:19:24;2.60;;;2.07;;
13279;SDS011;6708;49.814;8.652;2023-04-15T09:21:53;2.17;;;2.07;;
13279;SDS011;6708;49.814;8.652;2023-04-15T09:24:32;2.03;;;1.93;;
13279;SDS011;6708;49.814;8.652;2023-04-15T09:27:03;2.10;;;2.00;;
13279;SDS011;6708;49.814;8.652;2023-04-15T09:29:31;2.23;;;2.13;;
13279;SDS011;6708;49.814;8.652;2023-04-15T09:32:10;2.33;;;2.17;;
13279;SDS011;6708;49.814;8.652;2023-04-15T09:34:39;2.20;;;2.03;;
13279;SDS011;6708;49.814;8.652;2023-04-15T09:37:08;1.70;;;1.60;;
13279;SDS011;6708;49.814;8.652;2023-04-15T09:39:49;1.87;;;1.63;;
13279;SDS011;6708;49.814;8.652;2023-04-15T09:42:18;5.93;;;1.67;;
13279;SDS011;6708;49.814;8.652;2023-04-15T09:44:48;1.50;;;1.40;;
13279;SDS011;6708;49.814;8.652;2023-04-15T09:47:25;1.20;;;1.20;;
13279;SDS011;6708;49.814;8.652;2023-04-15T09:49:55;3.70;;;1.30;;
13279;SDS011;6708;49.814;8.652;2023-04-15T09:52:24;1.13;;;1.13;;
13279;SDS011;6708;49.814;8.652;2023-04-15T09:54:56;1.00;;;1.00;;
13279;SDS011;6708;49.814;8.652;2023-04-15T09:57:25;1.60;;;1.50;;
13279;SDS011;6708;49.814;8.652;2023-04-15T10:00:01;1.27;;;1.27;;
13279;SDS011;6708;49.814;8.652;2023-04-15T10:02:31;1.20;;;1.20;;
13279;SDS011;6708;49.814;8.652;2023-04-15T10:05:01;1.30;;;1.00;;
13279;SDS011;6708;49.814;8.652;2023-04-15T10:07:30;0.80;;;0.80;;
13279;SDS011;6708;49.814;8.652;2023-04-15T10:10:02;3.47;;;1.10;;
13279;SDS011;6708;49.814;8.652;2023-04-15T10:12:30;1.33;;;0.77;;
13279;SDS011;6708;49.814;8.652;2023-04-15T10:15:02;0.77;;;0.77;;
13279;SDS011;6708;49.814;8.652;2023-04-15T10:17:32;0.83;;;0.83;;
13279;SDS011;6708;49.814;8.652;2023-04-15T10:20:02;0.80;;;0.80;;
13279;SDS011;6708;49.814;8.652;2023-04-15T10:22:31;0.90;;;0.90;;
13279;SDS011;6708;49.814;8.652;2023-04-15T10:25:03;2.53;;;1.07;;
13279;SDS011;6708;49.814;8.652;2023-04-15T10:27:33;1.20;;;1.13;;
13279;SDS011;6708;49.814;8.652;2023-04-15T10:30:02;0.80;;;0.80;;
13279;SDS011;6708;49.814;8.652;2023-04-15T10:32:30;1.50;;;0.70;;
13279;SDS011;6708;49.814;8.652;2023-04-15T10:34:59;1.00;;;0.90;;
13279;SDS011;6708;49.814;8.652;2023-04-15T10:37:32;0.83;;;0.83;;
13279;SDS011;6708;49.814;8.652;2023-04-15T10:42:56;1.70;;;0.80;;
13279;SDS011;6708;49.814;8.652;2023-04-15T10:45:26;1.17;;;1.17;;
13279;SDS011;6708;49.814;8.652;2023-04-15T10:47:55;1.50;;;0.93;;
13279;SDS011;6708;49.814;8.652;2023-04-15T10:50:26;1.50;;;1.40;;
13279;SDS011;6708;49.814;8.652;2023-04-15T10:52:56;1.17;;;1.07;;
13279;SDS011;6708;49.814;8.652;2023-04-15T10:55:30;1.23;;;1.23;;
13279;SDS011;6708;49.814;8.652;2023-04-15T10:57:59;2.00;;;1.30;;
13279;SDS011;6708;49.814;8.652;2023-04-15T11:00:29;1.00;;;1.00;;
13279;SDS011;6708;49.814;8.652;2023-04-15T11:03:05;1.53;;;1.43;;
13279;SDS011;6708;49.814;8.652;2023-04-15T11:05:49;1.63;;;1.13;;
13279;SDS011;6708;49.814;8.652;2023-04-15T11:08:21;0.93;;;0.93;;
13279;SDS011;6708;49.814;8.652;2023-04-15T11:14:36;3.30;;;1.00;;
13279;SDS011;6708;49.814;8.652;2023-04-15T11:17:07;1.10;;;1.10;;
13279;SDS011;6708;49.814;8.652;2023-04-15T11:19:36;1.00;;;1.00;;
13279;SDS011;6708;49.814;8.652;2023-04-15T11:22:05;0.87;;;0.87;;
13279;SDS011;6708;49.814;8.652;2023-04-15T11:24:37;0.67;;;0.63;;
13279;SDS011;6708;49.814;8.652;2023-04-15T11:27:19;3.03;;;1.00;;
13279;SDS011;6708;49.814;8.652;2023-04-15T11:29:48;0.93;;;0.93;;
13279;SDS011;6708;49.814;8.652;2023-04-15T11:32:17;1.20;;;1.10;;
13279;SDS011;6708;49.814;8.652;2023-04-15T11:34:45;1.03;;;1.03;;
13279;SDS011;6708;49.814;8.652;2023-04-15T11:37:13;1.30;;;1.30;;
13279;SDS011;6708;49.814;8.652;2023-04-15T11:39:44;4.47;;;1.10;;
13279;SDS011;6708;49.814;8.652;2023-04-15T11:42:15;1.00;;;0.90;;
13279;SDS011;6708;49.814;8.652;2023-04-15T11:44:44;1.60;;;1.50;;
13279;SDS011;6708;49.814;8.652;2023-04-15T11:47:21;2.23;;;1.07;;
13279;SDS011;6708;49.814;8.652;2023-04-15T11:49:49;1.67;;;1.30;;
13279;SDS011;6708;49.814;8.652;2023-04-15T11:52:18;1.60;;;1.47;;
13279;SDS011;6708;49.814;8.652;2023-04-15T11:54:49;1.30;;;1.30;;
13279;SDS011;6708;49.814;8.652;2023-04-15T11:57:17;1.47;;;1.33;;
13279;SDS011;6708;49.814;8.652;2023-04-15T11:59:46;1.33;;;1.20;;
13279;SDS011;6708;49.814;8.652;2023-04-15T12:02:14;0.90;;;0.90;;
13279;SDS011;6708;49.814;8.652;2023-04-15T12:04:43;1.03;;;0.93;;
13279;SDS011;6708;49.814;8.652;2023-04-15T12:07:11;1.07;;;0.63;;
13279;SDS011;6708;49.814;8.652;2023-04-15T12:09:40;0.80;;;0.80;;
13279;SDS011;6708;49.814;8.652;2023-04-15T12:12:14;2.40;;;0.80;;
13279;SDS011;6708;49.814;8.652;2023-04-15T12:14:46;2.67;;;1.33;;
13279;SDS011;6708;49.814;8.652;2023-04-15T12:17:14;1.27;;;1.00;;
13279;SDS011;6708;49.814;8.652;2023-04-15T12:19:43;1.40;;;0.80;;
13279;SDS011;6708;49.814;8.652;2023-04-15T12:22:13;0.80;;;0.80;;
13279;SDS011;6708;49.814;8.652;2023-04-15T12:24:43;1.10;;;0.77;;
13279;SDS011;6708;49.814;8.652;2023-04-15T12:27:16;1.37;;;1.33;;
13279;SDS011;6708;49.814;8.652;2023-04-15T12:29:45;1.00;;;1.00;;
13279;SDS011;6708;49.814;8.652;2023-04-15T12:32:14;0.70;;;0.70;;
13279;SDS011;6708;49.814;8.652;2023-04-15T12:34:48;1.10;;;0.90;;
13279;SDS011;6708;49.814;8.652;2023-04-15T12:37:18;2.43;;;0.70;;
13279;SDS011;6708;49.814;8.652;2023-04-15T12:39:47;0.63;;;0.53;;
13279;SDS011;6708;49.814;8.652;2023-04-15T12:42:19;0.67;;;0.60;;
13279;SDS011;6708;49.814;8.652;2023-04-15T12:44:47;1.37;;;1.23;;
13279;SDS011;6708;49.814;8.652;2023-04-15T12:47:15;2.97;;;0.80;;
13279;SDS011;6708;49.814;8.652;2023-04-15T12:49:44;0.70;;;0.70;;
13279;SDS011;6708;49.814;8.652;2023-04-15T12:52:13;0.50;;;0.50;;
13279;SDS011;6708;49.814;8.652;2023-04-15T12:54:42;0.93;;;0.93;;
13279;SDS011;6708;49.814;8.652;2023-04-15T12:57:10;1.50;;;1.10;;
13279;SDS011;6708;49.814;8.652;2023-04-15T12:59:41;0.70;;;0.70;;
13279;SDS011;6708;49.814;8.652;2023-04-15T13:02:09;2.83;;;1.10;;
13279;SDS011;6708;49.814;8.652;2023-04-15T13:04:38;2.30;;;1.40;;
13279;SDS011;6708;49.814;8.652;2023-04-15T13:07:07;1.90;;;1.70;;
13279;SDS011;6708;49.814;8.652;2023-04-15T13:09:37;1.80;;;1.70;;
13279;SDS011;6708;49.814;8.652;2023-04-15T13:12:06;1.60;;;1.50;;
13279;SDS011;6708;49.814;8.652;2023-04-15T13:14:35;1.60;;;1.60;;
13279;SDS011;6708;49.814;8.652;2023-04-15T13:17:06;1.63;;;1.53;;
13279;SDS011;6708;49.814;8.652;2023-04-15T13:19:35;1.80;;;1.70;;
13279;SDS011;6708;49.814;8.652;2023-04-15T13:22:04;1.90;;;1.80;;
13279;SDS011;6708;49.814;8.652;2023-04-15T13:24:32;1.57;;;1.47;;
13279;SDS011;6708;49.814;8.652;2023-04-15T13:27:01;1.97;;;1.87;;
13279;SDS011;6708;49.814;8.652;2023-04-15T13:29:29;1.67;;;1.57;;
13279;SDS011;6708;49.814;8.652;2023-04-15T13:31:58;2.10;;;1.40;;
13279;SDS011;6708;49.814;8.652;2023-04-15T13:34:28;1.60;;;1.50;;
13279;SDS011;6708;49.814;8.652;2023-04-15T13:36:57;1.50;;;1.40;;
13279;SDS011;6708;49.814;8.652;2023-04-15T13:39:25;1.50;;;1.40;;
13279;SDS011;6708;49.814;8.652;2023-04-15T13:41:54;1.37;;;1.37;;
13279;SDS011;6708;49.814;8.652;2023-04-15T13:44:22;1.60;;;1.50;;
13279;SDS011;6708;49.814;8.652;2023-04-15T13:46:51;1.70;;;1.60;;
13279;SDS011;6708;49.814;8.652;2023-04-15T13:49:19;1.37;;;1.37;;
13279;SDS011;6708;49.814;8.652;2023-04-15T13:51:50;1.47;;;1.47;;
13279;SDS011;6708;49.814;8.652;2023-04-15T13:54:18;1.47;;;1.37;;
13279;SDS011;6708;49.814;8.652;2023-04-15T13:56:47;3.27;;;1.23;;
13279;SDS011;6708;49.814;8.652;2023-04-15T13:59:15;1.20;;;1.20;;
13279;SDS011;6708;49.814;8.652;2023-04-15T14:01:44;1.60;;;1.07;;
13279;SDS011;6708;49.814;8.652;2023-04-15T14:04:12;1.47;;;1.30;;
13279;SDS011;6708;49.814;8.652;2023-04-15T14:06:41;0.90;;;0.90;;
13279;SDS011;6708;49.814;8.652;2023-04-15T14:09:12;1.47;;;1.37;;
13279;SDS011;6708;49.814;8.652;2023-04-15T14:11:43;0.93;;;0.93;;
13279;SDS011;6708;49.814;8.652;2023-04-15T14:14:18;0.70;;;0.70;;
13279;SDS011;6708;49.814;8.652;2023-04-15T14:16:46;0.70;;;0.70;;
13279;SDS011;6708;49.814;8.652;2023-04-15T14:19:14;1.00;;;0.80;;
13279;SDS011;6708;49.814;8.652;2023-04-15T14:21:47;2.77;;;1.10;;
13279;SDS011;6708;49.814;8.652;2023-04-15T14:24:18;0.60;;;0.60;;
13279;SDS011;6708;49.814;8.652;2023-04-15T14:26:46;0.80;;;0.80;;
13279;SDS011;6708;49.814;8.652;2023-04-15T14:29:15;1.60;;;1.03;;
13279;SDS011;6708;49.814;8.652;2023-04-15T14:31:43;0.60;;;0.60;;
13279;SDS011;6708;49.814;8.652;2023-04-15T14:34:12;0.53;;;0.53;;
13279;SDS011;6708;49.814;8.652;2023-04-15T14:36:41;0.50;;;0.50;;
13279;SDS011;6708;49.814;8.652;2023-04-15T14:39:09;0.60;;;0.60;;
13279;SDS011;6708;49.814;8.652;2023-04-15T14:41:40;0.70;;;0.70;;
13279;SDS011;6708;49.814;8.652;2023-04-15T14:44:09;0.67;;;0.67;;
13279;SDS011;6708;49.814;8.652;2023-04-15T14:46:38;0.70;;;0.70;;
13279;SDS011;6708;49.814;8.652;2023-04-15T14:49:07;0.60;;;0.60;;
13279;SDS011;6708;49.814;8.652;2023-04-15T14:51:35;0.40;;;0.40;;
13279;SDS011;6708;49.814;8.652;2023-04-15T14:54:04;0.57;;;0.57;;
13279;SDS011;6708;49.814;8.652;2023-04-15T14:56:32;0.53;;;0.53;;
13279;SDS011;6708;49.814;8.652;2023-04-15T14:59:03;0.77;;;0.63;;
13279;SDS011;6708;49.814;8.652;2023-04-15T15:01:32;0.63;;;0.63;;
13279;SDS011;6708;49.814;8.652;2023-04-15T15:04:00;0.53;;;0.53;;
13279;SDS011;6708;49.814;8.652;2023-04-15T15:06:29;0.30;;;0.30;;
13279;SDS011;6708;49.814;8.652;2023-04-15T15:08:57;0.70;;;0.70;;
13279;SDS011;6708;49.814;8.652;2023-04-15T15:11:26;0.60;;;0.60;;
13279;SDS011;6708;49.814;8.652;2023-04-15T15:13:54;0.60;;;0.60;;
13279;SDS011;6708;49.814;8.652;2023-04-15T15:16:26;0.47;;;0.47;;
13279;SDS011;6708;49.814;8.652;2023-04-15T15:18:54;0.70;;;0.70;;
13279;SDS011;6708;49.814;8.652;2023-04-15T15:21:23;0.77;;;0.70;;